Time;durP1;ratioP1;P1;durP2;ratioP2;P2;SDS_P1;SDS_P2;PMS_P1;PMS_P2;Temp;Humidity;BMP_temperature;BMP_pressure;BME280_temperature;BME280_humidity;BME280_pressure;Samples;Min_cycle;Max_cycle;Signal;HPM_P1;HPM_P2
2022/07/23 00:00:44;;;;;;;5.82;3.70;;;;;;;16.32;74.82;101825.06;4993091;28;20117;-74
2022/07/23 00:03:09;;;;;;;7.45;4.18;;;;;;;16.26;74.90;101815.97;5004470;28;20022;-74
2022/07/23 00:05:35;;;;;;;5.80;4.13;;;;;;;16.33;74.59;101826.72;4989661;28;20145;-74
2022/07/23 00:08:01;;;;;;;6.60;3.97;;;;;;;16.19;74.80;101825.34;4989234;28;20073;-74
2022/07/23 00:10:26;;;;;;;5.68;4.00;;;;;;;16.15;75.72;101818.75;4985840;28;20390;-74
2022/07/23 00:12:52;;;;;;;7.45;4.57;;;;;;;16.11;75.34;101817.34;4983048;28;20038;-74
2022/07/23 00:15:17;;;;;;;6.60;4.57;;;;;;;16.05;75.75;101810.88;4986025;28;20042;-75
2022/07/23 00:17:43;;;;;;;7.03;4.10;;;;;;;16.04;75.67;101800.53;4988522;28;20434;-74
2022/07/23 00:20:08;;;;;;;5.88;4.60;;;;;;;15.97;75.88;101805.50;4988755;28;20033;-74
2022/07/23 00:22:34;;;;;;;9.27;5.28;;;;;;;16.01;75.73;101819.16;4988156;28;20023;-74
2022/07/23 00:24:59;;;;;;;7.68;5.20;;;;;;;16.00;75.98;101827.94;4985715;28;20026;-74
2022/07/23 00:27:25;;;;;;;7.75;5.45;;;;;;;15.91;75.93;101819.13;4989019;28;20430;-76
2022/07/23 00:29:50;;;;;;;9.35;6.22;;;;;;;15.98;75.74;101832.50;4988261;28;20053;-74
2022/07/23 00:32:16;;;;;;;9.05;5.78;;;;;;;16.04;75.53;101826.72;4988948;28;20021;-74
2022/07/23 00:34:41;;;;;;;7.57;6.20;;;;;;;16.05;76.06;101816.09;4988465;28;20120;-74
2022/07/23 00:37:06;;;;;;;8.50;6.32;;;;;;;15.99;76.45;101802.75;4988996;28;20538;-74
2022/07/23 00:39:32;;;;;;;7.93;6.53;;;;;;;16.07;75.65;101802.91;4989112;28;20069;-74
2022/07/23 00:41:57;;;;;;;7.93;5.95;;;;;;;15.99;76.58;101810.59;4986505;28;20030;-74
2022/07/23 00:44:26;;;;;;;8.82;7.00;;;;;;;16.03;76.66;101799.72;4988494;28;20046;-74
2022/07/23 00:46:53;;;;;;;;;;;;;;;16.26;74.64;101809.94;4988069;28;20034;-74
2022/07/23 00:49:24;;;;;;;10.03;6.60;;;;;;;15.99;76.65;101807.97;4989248;28;19953;-75
2022/07/23 00:51:50;;;;;;;9.88;6.95;;;;;;;15.81;77.41;101806.03;4988593;28;20286;-75
2022/07/23 00:54:17;;;;;;;9.88;7.47;;;;;;;15.89;76.96;101798.34;4993474;28;20034;-74
2022/07/23 00:56:43;;;;;;;9.77;6.90;;;;;;;15.82;77.58;101794.59;4985328;28;20108;-74
2022/07/23 00:59:09;;;;;;;9.77;7.25;;;;;;;15.87;76.89;101799.44;4988204;28;20113;-76
2022/07/23 01:01:35;;;;;;;8.60;7.15;;;;;;;15.74;77.56;101799.69;4995995;28;20875;-74
2022/07/23 01:04:00;;;;;;;9.68;7.25;;;;;;;15.77;77.50;101798.56;4988187;28;20033;-74
2022/07/23 01:06:26;;;;;;;9.65;6.95;;;;;;;15.78;76.87;101801.09;4985599;28;20576;-73
2022/07/23 01:08:53;;;;;;;9.63;7.20;;;;;;;15.78;76.79;101808.09;5001866;28;20041;-73
2022/07/23 01:11:19;;;;;;;8.25;7.13;;;;;;;15.62;78.30;101805.97;4988138;28;20049;-74
2022/07/23 01:13:45;;;;;;;8.60;7.32;;;;;;;15.70;77.97;101802.69;4987306;28;20047;-74
2022/07/23 01:16:11;;;;;;;10.85;7.28;;;;;;;15.70;78.43;101803.53;4985753;28;20026;-74
2022/07/23 01:18:36;;;;;;;8.77;7.20;;;;;;;15.69;77.84;101796.66;4988056;28;20151;-74
2022/07/23 01:21:02;;;;;;;9.18;7.65;;;;;;;15.56;78.64;101796.03;4987506;28;20031;-73
2022/07/23 01:23:28;;;;;;;9.05;7.40;;;;;;;15.54;78.07;101797.94;4988279;28;20018;-74
2022/07/23 01:25:55;;;;;;;11.18;7.28;;;;;;;15.52;78.34;101797.25;5002475;28;20041;-74
2022/07/23 01:28:21;;;;;;;9.43;7.55;;;;;;;15.49;78.99;101800.16;4987872;28;20383;-73
2022/07/23 01:30:47;;;;;;;9.63;7.55;;;;;;;15.46;79.27;101795.19;4988030;28;20034;-74
2022/07/23 01:33:13;;;;;;;10.25;7.32;;;;;;;15.35;79.78;101789.09;4979505;28;20026;-73
2022/07/23 01:35:38;;;;;;;9.07;7.45;;;;;;;15.43;78.95;101792.84;4987388;28;20037;-73
2022/07/23 01:38:05;;;;;;;9.82;7.40;;;;;;;15.30;79.70;101791.28;4987087;28;20545;-74
2022/07/23 01:40:31;;;;;;;8.38;7.10;;;;;;;15.28;79.71;101777.53;4987758;28;20030;-74
2022/07/23 01:42:56;;;;;;;8.75;7.22;;;;;;;15.31;79.56;101782.50;4987868;28;20485;-74
2022/07/23 01:45:21;;;;;;;8.48;7.07;;;;;;;15.25;80.19;101783.00;4987211;28;20097;-73
2022/07/23 01:47:47;;;;;;;8.48;7.53;;;;;;;15.21;80.31;101786.84;4988569;28;20076;-74
2022/07/23 01:50:13;;;;;;;8.13;7.20;;;;;;;15.24;79.67;101788.38;4987386;28;20032;-73
2022/07/23 01:52:38;;;;;;;10.30;7.40;;;;;;;15.13;80.79;101794.50;4987717;28;20033;-74
2022/07/23 01:55:05;;;;;;;8.77;7.20;;;;;;;15.18;80.32;101802.78;4987289;28;20463;-74
2022/07/23 01:57:31;;;;;;;9.82;7.55;;;;;;;15.10;80.69;101794.78;4986619;28;20113;-74
2022/07/23 01:59:56;;;;;;;8.93;7.20;;;;;;;15.09;80.98;101793.13;4987307;28;20129;-73
2022/07/23 02:02:21;;;;;;;8.60;7.45;;;;;;;15.02;80.73;101779.75;4987518;28;20485;-74
2022/07/23 02:04:47;;;;;;;9.20;6.95;;;;;;;15.10;80.69;101779.94;4987344;28;20062;-73
2022/07/23 02:07:12;;;;;;;8.07;7.00;;;;;;;15.07;81.24;101779.34;4986573;28;20374;-74
2022/07/23 02:09:50;;;;;;;9.15;7.20;;;;;;;15.04;81.59;101784.84;4986920;28;20394;-75
2022/07/23 02:12:27;;;;;;;8.77;7.20;;;;;;;15.07;81.04;101790.63;4981471;28;20045;-76
2022/07/23 02:14:53;;;;;;;8.90;7.23;;;;;;;15.03;81.29;101777.97;4978969;28;20051;-76
2022/07/23 02:17:18;;;;;;;8.68;6.65;;;;;;;15.10;81.13;101790.38;4988936;28;20476;-75
2022/07/23 02:19:44;;;;;;;8.20;7.20;;;;;;;14.95;81.29;101783.00;4995714;28;20041;-73
2022/07/23 02:22:09;;;;;;;8.35;7.10;;;;;;;14.92;81.86;101775.44;4990731;28;20025;-73
2022/07/23 02:24:34;;;;;;;8.07;6.72;;;;;;;14.94;81.89;101781.38;4991418;28;20057;-73
2022/07/23 02:27:00;;;;;;;9.93;7.25;;;;;;;14.91;81.45;101784.22;4990861;28;20623;-73
2022/07/23 02:29:25;;;;;;;8.25;6.75;;;;;;;14.84;81.58;101774.28;4989508;28;20026;-73
2022/07/23 02:31:50;;;;;;;8.70;7.13;;;;;;;14.72;81.87;101780.56;5005908;28;20467;-74
2022/07/23 02:34:16;;;;;;;9.32;7.20;;;;;;;14.78;81.63;101780.03;4979326;28;20514;-75
2022/07/23 02:36:41;;;;;;;10.27;6.97;;;;;;;14.76;82.53;101786.34;5005178;28;20026;-75
2022/07/23 02:39:07;;;;;;;8.60;7.00;;;;;;;14.72;82.70;101793.59;4991219;28;20029;-74
2022/07/23 02:41:32;;;;;;;8.30;6.38;;;;;;;14.78;82.27;101785.25;4990311;28;20030;-74
2022/07/23 02:43:58;;;;;;;8.15;6.80;;;;;;;14.70;82.75;101777.25;4991214;28;20033;-74
2022/07/23 02:46:23;;;;;;;9.35;6.68;;;;;;;14.69;82.19;101765.16;4990619;28;20628;-74
2022/07/23 02:48:48;;;;;;;9.35;6.80;;;;;;;14.82;82.24;101781.44;4986890;28;20463;-74
2022/07/23 02:51:14;;;;;;;8.65;6.55;;;;;;;14.74;82.69;101781.28;5005624;28;20029;-75
2022/07/23 02:53:39;;;;;;;10.70;6.68;;;;;;;14.69;82.78;101788.66;4987993;28;20030;-74
2022/07/23 02:56:04;;;;;;;7.07;6.38;;;;;;;14.68;82.36;101789.63;4989246;28;20110;-74
2022/07/23 02:58:30;;;;;;;8.77;6.82;;;;;;;14.69;82.42;101796.50;4990789;28;20022;-74
2022/07/23 03:00:55;;;;;;;9.07;6.75;;;;;;;14.55;83.12;101795.00;4989290;28;20133;-74
2022/07/23 03:03:21;;;;;;;8.40;6.47;;;;;;;14.66;82.41;101791.50;4989840;28;20505;-74
2022/07/23 03:05:47;;;;;;;8.30;6.50;;;;;;;14.57;83.40;101794.91;4987832;28;20471;-74
2022/07/23 03:08:12;;;;;;;9.20;6.40;;;;;;;14.53;83.36;101791.72;4989916;28;20459;-74
2022/07/23 03:10:38;;;;;;;9.95;7.10;;;;;;;14.51;83.31;101787.59;4990057;28;20033;-74
2022/07/23 03:13:03;;;;;;;9.00;6.72;;;;;;;14.52;83.68;101795.28;4990726;28;20474;-75
2022/07/23 03:15:28;;;;;;;8.25;6.40;;;;;;;14.48;83.43;101787.81;5005359;28;20123;-74
2022/07/23 03:17:54;;;;;;;8.25;6.65;;;;;;;14.50;83.35;101789.34;4990725;28;20479;-74
2022/07/23 03:20:19;;;;;;;9.38;6.65;;;;;;;14.46;83.31;101794.94;4989889;28;20026;-75
2022/07/23 03:22:45;;;;;;;8.93;6.60;;;;;;;14.42;83.41;101793.53;4989657;28;20433;-74
2022/07/23 03:25:10;;;;;;;8.90;6.45;;;;;;;14.39;83.42;101793.75;4990944;28;20440;-74
2022/07/23 03:27:35;;;;;;;8.95;6.07;;;;;;;14.37;83.50;101798.28;4989536;28;20033;-75
2022/07/23 03:30:01;;;;;;;7.78;5.97;;;;;;;14.38;83.73;101797.31;4988943;28;20026;-73
2022/07/23 03:32:26;;;;;;;8.75;6.22;;;;;;;14.38;83.34;101813.81;5004866;28;20026;-74
2022/07/23 03:34:52;;;;;;;8.88;6.32;;;;;;;14.33;83.87;101806.34;4989621;28;20463;-73
2022/07/23 03:37:18;;;;;;;8.85;6.43;;;;;;;14.33;84.22;101795.09;4997342;28;20033;-74
2022/07/23 03:39:44;;;;;;;7.68;6.15;;;;;;;14.35;83.97;101804.47;4995093;28;20077;-74
2022/07/23 03:42:10;;;;;;;8.82;5.88;;;;;;;14.37;83.98;101806.94;5004591;28;21030;-73
2022/07/23 03:44:38;;;;;;;8.90;6.22;;;;;;;14.44;84.17;101812.47;4989360;28;20022;-74
2022/07/23 03:47:04;;;;;;;;;;;;;;;14.63;82.12;101812.66;4990364;28;20038;-73
2022/07/23 03:49:30;;;;;;;7.32;6.05;;;;;;;14.44;83.21;101791.59;4984778;28;20354;-73
2022/07/23 03:51:55;;;;;;;7.72;6.38;;;;;;;14.35;84.37;101814.91;4984090;28;20474;-73
2022/07/23 03:54:20;;;;;;;8.18;6.35;;;;;;;14.26;83.78;101800.00;4989139;28;20097;-73
2022/07/23 03:56:46;;;;;;;9.20;6.43;;;;;;;14.22;83.69;101814.25;4989060;28;20034;-73
2022/07/23 03:59:11;;;;;;;7.78;5.93;;;;;;;14.22;84.00;101814.25;4982993;28;20026;-73
2022/07/23 04:01:37;;;;;;;7.30;5.85;;;;;;;14.14;84.04;101795.78;5004258;28;20052;-73
2022/07/23 04:04:02;;;;;;;7.75;5.65;;;;;;;14.18;83.96;101799.81;4989304;28;20414;-74
2022/07/23 04:06:28;;;;;;;8.63;5.72;;;;;;;14.12;84.08;101807.31;4989650;28;20030;-73
2022/07/23 04:08:54;;;;;;;7.55;5.53;;;;;;;14.19;83.66;101819.72;4989046;28;20037;-73
2022/07/23 04:11:19;;;;;;;8.70;4.82;;;;;;;14.19;83.92;101805.84;4989426;28;20121;-73
2022/07/23 04:13:44;;;;;;;7.25;5.63;;;;;;;14.13;84.27;101804.56;4984342;28;20035;-74
2022/07/23 04:16:10;;;;;;;7.20;5.50;;;;;;;14.10;84.46;101810.00;4985386;28;20034;-73
2022/07/23 04:18:35;;;;;;;8.20;5.80;;;;;;;14.07;84.74;101811.09;4989110;28;20386;-73
2022/07/23 04:21:01;;;;;;;8.38;5.43;;;;;;;14.19;84.67;101813.66;4988994;28;20534;-73
2022/07/23 04:23:26;;;;;;;7.78;5.60;;;;;;;14.12;85.34;101808.13;4989370;28;20036;-73
2022/07/23 04:25:51;;;;;;;7.55;5.70;;;;;;;14.22;84.55;101813.41;4975332;28;20022;-74
2022/07/23 04:28:17;;;;;;;7.50;5.50;;;;;;;14.20;84.52;101803.09;4989306;28;20033;-73
2022/07/23 04:30:42;;;;;;;10.13;6.32;;;;;;;14.14;85.05;101811.44;4988783;28;20437;-74
2022/07/23 04:33:08;;;;;;;6.40;5.68;;;;;;;14.18;85.24;101815.47;4989029;28;20042;-73
2022/07/23 04:35:34;;;;;;;7.80;5.53;;;;;;;14.13;85.25;101815.00;4987225;28;20029;-74
2022/07/23 04:37:59;;;;;;;7.65;5.75;;;;;;;14.06;85.58;101808.63;4988919;28;20422;-73
2022/07/23 04:40:26;;;;;;;9.13;5.75;;;;;;;14.16;85.58;101812.13;4988374;28;20463;-73
2022/07/23 04:42:52;;;;;;;7.90;6.28;;;;;;;14.08;86.06;101811.94;4989370;28;20030;-73
2022/07/23 04:45:17;;;;;;;7.43;5.85;;;;;;;14.22;84.79;101834.28;4988725;28;20049;-73
2022/07/23 04:47:42;;;;;;;9.20;5.72;;;;;;;14.30;84.24;101822.28;4981607;28;20026;-74
2022/07/23 04:50:08;;;;;;;10.20;6.13;;;;;;;14.29;84.05;101831.06;4988719;28;20369;-73
2022/07/23 04:52:34;;;;;;;7.78;5.40;;;;;;;14.30;84.22;101829.28;4988173;28;20038;-73
2022/07/23 04:54:59;;;;;;;8.60;5.43;;;;;;;14.28;84.20;101812.94;4987824;28;20019;-74
2022/07/23 04:57:24;;;;;;;7.90;5.60;;;;;;;14.29;83.80;101823.25;4988411;28;20066;-74
2022/07/23 04:59:50;;;;;;;9.48;5.47;;;;;;;14.25;83.29;101824.44;4985599;28;20467;-73
2022/07/23 05:02:15;;;;;;;7.72;5.07;;;;;;;14.34;84.28;101828.09;4978576;28;20031;-73
2022/07/23 05:04:40;;;;;;;8.85;5.55;;;;;;;14.41;83.75;101828.41;4985677;28;20026;-74
2022/07/23 05:07:06;;;;;;;8.70;5.35;;;;;;;14.39;83.19;101832.91;4987753;28;20019;-73
2022/07/23 05:09:32;;;;;;;7.95;5.60;;;;;;;14.40;83.59;101824.16;4979033;28;20073;-74
2022/07/23 05:11:57;;;;;;;7.72;5.10;;;;;;;14.42;83.21;101830.06;4988346;28;20465;-73
2022/07/23 05:14:22;;;;;;;6.40;5.15;;;;;;;14.45;83.05;101835.00;4987149;28;20054;-73
2022/07/23 05:16:48;;;;;;;7.93;5.60;;;;;;;14.41;83.52;101828.41;4988304;28;20311;-74
2022/07/23 05:19:13;;;;;;;8.25;5.43;;;;;;;14.51;83.17;101829.34;4986590;28;20022;-73
2022/07/23 05:21:39;;;;;;;7.88;5.03;;;;;;;14.54;82.08;101829.09;4987130;28;20391;-74
2022/07/23 05:24:05;;;;;;;6.65;4.97;;;;;;;14.56;82.34;101842.81;4987547;28;20113;-73
2022/07/23 05:26:30;;;;;;;8.48;5.22;;;;;;;14.59;82.60;101837.38;4986477;28;20046;-73
2022/07/23 05:28:56;;;;;;;7.78;5.00;;;;;;;14.63;81.96;101846.63;4987036;28;20019;-73
2022/07/23 05:31:21;;;;;;;6.75;4.93;;;;;;;14.64;82.00;101840.44;4988123;28;20518;-74
2022/07/23 05:33:46;;;;;;;8.60;5.03;;;;;;;14.72;82.33;101845.84;4987192;28;20780;-73
2022/07/23 05:36:12;;;;;;;7.32;4.90;;;;;;;14.73;82.62;101854.50;4987690;28;20109;-73
2022/07/23 05:38:37;;;;;;;7.20;4.82;;;;;;;14.76;82.52;101854.25;4987626;28;20105;-73
2022/07/23 05:41:02;;;;;;;7.50;4.82;;;;;;;14.85;81.82;101849.09;4986786;28;20474;-73
2022/07/23 05:43:28;;;;;;;6.90;5.03;;;;;;;14.85;83.02;101859.56;4978547;28;20076;-73
2022/07/23 05:45:54;;;;;;;7.97;5.63;;;;;;;14.97;82.81;101867.31;4998136;28;20458;-74
2022/07/23 05:48:20;;;;;;;7.28;5.82;;;;;;;14.99;82.97;101865.41;4984713;28;20053;-73
2022/07/23 05:50:46;;;;;;;6.78;5.97;;;;;;;15.09;83.20;101871.53;4987900;28;20493;-74
2022/07/23 05:53:12;;;;;;;8.65;6.30;;;;;;;15.09;83.59;101876.75;4986709;28;20034;-74
2022/07/23 05:55:37;;;;;;;8.35;6.75;;;;;;;15.10;82.73;101873.16;4987420;28;20093;-73
2022/07/23 05:58:03;;;;;;;11.43;7.07;;;;;;;15.20;82.96;101871.44;4987210;28;20030;-73
2022/07/23 06:00:28;;;;;;;7.85;6.35;;;;;;;15.30;82.74;101880.13;4986203;28;20474;-73
2022/07/23 06:02:54;;;;;;;10.18;7.30;;;;;;;15.25;83.93;101882.31;4987581;28;20034;-73
2022/07/23 06:05:20;;;;;;;9.65;7.25;;;;;;;15.24;83.20;101880.66;4987159;28;20073;-74
2022/07/23 06:07:46;;;;;;;12.20;7.00;;;;;;;15.33;83.18;101874.66;4986678;28;20041;-73
2022/07/23 06:10:11;;;;;;;8.07;7.20;;;;;;;15.48;83.06;101876.91;4991695;28;20030;-73
2022/07/23 06:12:37;;;;;;;8.85;7.35;;;;;;;15.44;83.31;101880.78;4987270;28;20109;-73
2022/07/23 06:15:03;;;;;;;9.27;7.85;;;;;;;15.40;84.81;101883.63;4986168;28;20097;-74
2022/07/23 06:17:29;;;;;;;10.40;7.50;;;;;;;15.60;83.23;101891.59;4984974;28;20026;-73
2022/07/23 06:19:55;;;;;;;9.05;7.47;;;;;;;15.45;82.63;101887.66;4985511;28;20494;-73
2022/07/23 06:22:21;;;;;;;11.00;7.32;;;;;;;15.53;82.37;101890.44;4984073;28;20060;-73
2022/07/23 06:24:48;;;;;;;9.13;7.10;;;;;;;15.62;82.65;101889.66;4987207;28;20058;-74
2022/07/23 06:27:13;;;;;;;9.02;7.15;;;;;;;15.71;82.02;101891.47;4986031;28;20030;-73
2022/07/23 06:29:40;;;;;;;10.15;7.45;;;;;;;15.65;81.05;101892.88;4984965;28;20386;-74
2022/07/23 06:32:06;;;;;;;8.32;7.03;;;;;;;15.72;81.17;101895.78;4985978;28;20172;-74
2022/07/23 06:34:31;;;;;;;10.23;6.93;;;;;;;15.78;81.51;101879.56;4985769;28;20113;-74
2022/07/23 06:36:57;;;;;;;8.85;7.10;;;;;;;15.85;80.85;101885.91;4984613;28;20022;-75
2022/07/23 06:39:22;;;;;;;10.40;6.88;;;;;;;15.85;79.87;101885.91;4985509;28;20065;-74
2022/07/23 06:41:47;;;;;;;8.98;6.78;;;;;;;15.92;79.18;101880.94;4986080;28;20030;-74
2022/07/23 06:44:13;;;;;;;8.80;6.50;;;;;;;16.01;79.94;101884.56;4985320;28;20033;-75
2022/07/23 06:46:38;;;;;;;9.48;6.20;;;;;;;16.10;78.08;101883.75;4987125;28;20014;-73
2022/07/23 06:49:04;;;;;;;9.32;5.20;;;;;;;16.07;76.91;101889.25;4986746;28;20482;-74
2022/07/23 06:51:30;;;;;;;8.07;5.50;;;;;;;16.19;77.67;101889.00;4986362;28;20022;-74
2022/07/23 06:53:55;;;;;;;8.35;5.00;;;;;;;16.21;76.28;101881.00;4986258;28;20513;-74
2022/07/23 06:56:20;;;;;;;7.72;5.40;;;;;;;16.33;76.62;101889.56;4985489;28;20050;-74
2022/07/23 06:58:46;;;;;;;8.30;5.22;;;;;;;16.33;75.49;101890.38;4986399;28;20089;-74
2022/07/23 07:01:11;;;;;;;9.30;5.28;;;;;;;16.40;75.41;101894.13;4986488;28;20026;-74
2022/07/23 07:03:36;;;;;;;7.80;5.00;;;;;;;16.43;76.40;101901.69;4988415;28;20014;-73
2022/07/23 07:06:02;;;;;;;8.43;5.13;;;;;;;16.47;75.42;101894.41;4990762;28;20026;-74
2022/07/23 07:08:28;;;;;;;6.60;3.53;;;;;;;16.64;74.53;101892.88;4990465;28;20361;-75
2022/07/23 07:10:53;;;;;;;5.43;3.35;;;;;;;16.62;74.77;101889.56;4990315;28;20047;-74
2022/07/23 07:13:19;;;;;;;6.93;3.75;;;;;;;16.74;74.03;101898.97;4989059;28;20121;-74
2022/07/23 07:15:44;;;;;;;7.13;4.00;;;;;;;16.78;73.74;101891.66;5004568;28;20049;-74
2022/07/23 07:18:09;;;;;;;5.30;3.67;;;;;;;16.81;73.09;101894.00;4989813;28;20113;-74
2022/07/23 07:20:35;;;;;;;8.02;4.57;;;;;;;16.87;73.61;101889.03;4989364;28;20451;-74
2022/07/23 07:23:00;;;;;;;7.93;4.93;;;;;;;16.99;73.74;101898.41;4988527;28;20026;-74
2022/07/23 07:25:25;;;;;;;7.05;4.57;;;;;;;17.02;73.88;101896.44;4989825;28;20030;-74
2022/07/23 07:27:51;;;;;;;9.02;4.70;;;;;;;17.13;72.85;101893.66;4989797;28;20521;-72
2022/07/23 07:30:16;;;;;;;6.07;4.68;;;;;;;17.20;72.95;101900.00;4989583;28;20506;-74
2022/07/23 07:32:42;;;;;;;8.90;5.30;;;;;;;17.20;72.06;101902.59;4989388;28;20470;-73
2022/07/23 07:35:09;;;;;;;8.88;5.40;;;;;;;17.26;71.78;101904.66;4987947;28;20061;-74
2022/07/23 07:37:34;;;;;;;8.00;5.20;;;;;;;17.16;70.95;101899.47;4989511;28;20049;-73
2022/07/23 07:39:59;;;;;;;8.25;5.40;;;;;;;17.40;72.66;101909.47;4979765;28;20466;-75
2022/07/23 07:42:26;;;;;;;6.90;4.88;;;;;;;17.35;71.12;101903.81;4983830;28;20026;-75
2022/07/23 07:44:52;;;;;;;7.50;4.82;;;;;;;17.47;72.39;101907.91;4985487;28;20057;-75
2022/07/23 07:47:17;;;;;;;8.02;4.30;;;;;;;17.40;69.58;101912.09;4989843;28;20078;-75
2022/07/23 07:49:43;;;;;;;7.32;3.85;;;;;;;17.52;70.09;101916.19;4988346;28;20038;-75
2022/07/23 07:52:09;;;;;;;6.55;4.53;;;;;;;17.64;69.75;101913.38;4988145;28;20077;-75
2022/07/23 07:54:34;;;;;;;7.72;4.97;;;;;;;17.60;69.29;101922.50;4988185;28;20014;-75
2022/07/23 07:57:00;;;;;;;5.13;4.13;;;;;;;17.62;69.15;101925.81;4989076;28;20081;-75
2022/07/23 07:59:25;;;;;;;6.65;3.95;;;;;;;17.84;68.39;101929.91;4989613;28;20061;-75
2022/07/23 08:01:51;;;;;;;8.73;4.85;;;;;;;17.76;68.08;101930.59;4984068;28;20035;-75
2022/07/23 08:04:17;;;;;;;6.18;3.83;;;;;;;17.95;69.22;101935.78;4988834;28;20022;-75
2022/07/23 08:06:42;;;;;;;7.53;4.82;;;;;;;18.11;69.58;101937.75;4988940;28;20026;-75
2022/07/23 08:09:08;;;;;;;7.38;5.22;;;;;;;18.27;69.21;101937.94;4989107;28;20034;-75
2022/07/23 08:11:33;;;;;;;7.50;5.43;;;;;;;18.43;70.35;101936.44;5003480;28;20065;-76
2022/07/23 08:13:59;;;;;;;8.57;5.90;;;;;;;18.46;69.17;101931.69;4987678;28;20045;-75
2022/07/23 08:16:24;;;;;;;8.60;6.25;;;;;;;18.48;68.35;101929.78;4979378;28;20026;-75
2022/07/23 08:18:49;;;;;;;7.80;5.65;;;;;;;18.55;68.99;101930.81;4979193;28;20049;-75
2022/07/23 08:21:15;;;;;;;8.52;5.82;;;;;;;18.60;68.06;101932.19;4988223;28;20044;-75
2022/07/23 08:23:40;;;;;;;9.30;6.25;;;;;;;18.62;67.27;101945.97;4986918;28;20117;-75
2022/07/23 08:26:06;;;;;;;8.38;5.88;;;;;;;18.75;67.83;101942.03;5001980;28;20042;-74
2022/07/23 08:28:32;;;;;;;8.02;5.80;;;;;;;18.77;67.87;101944.50;4988675;28;20453;-75
2022/07/23 08:30:58;;;;;;;8.60;6.00;;;;;;;18.74;65.43;101947.44;4987745;28;20030;-75
2022/07/23 08:33:24;;;;;;;7.05;5.65;;;;;;;18.86;66.52;101942.75;4988887;28;20030;-74
2022/07/23 08:35:52;;;;;;;8.82;6.03;;;;;;;18.76;66.89;101932.34;4988383;28;20065;-75
2022/07/23 08:38:19;;;;;;;8.55;5.82;;;;;;;18.99;67.05;101940.59;4987605;28;20536;-74
2022/07/23 08:40:47;;;;;;;7.22;5.72;;;;;;;19.14;67.93;101944.28;4988072;28;20034;-75
2022/07/23 08:43:19;;;;;;;7.60;5.75;;;;;;;19.17;64.63;101945.81;4987581;28;20318;-75
2022/07/23 08:45:50;;;;;;;8.27;6.15;;;;;;;19.16;65.81;101942.34;4985092;28;20026;-74
2022/07/23 08:48:20;;;;;;;7.32;5.97;;;;;;;19.32;65.33;101949.50;5002232;28;20088;-75
2022/07/23 08:50:49;;;;;;;9.02;6.25;;;;;;;19.29;63.74;101944.56;4985262;28;20789;-74
2022/07/23 08:53:15;;;;;;;7.72;5.70;;;;;;;19.33;64.34;101956.44;4982420;28;20371;-74
2022/07/23 08:55:44;;;;;;;7.53;6.00;;;;;;;19.12;63.51;101958.59;4977866;28;20041;-75
2022/07/23 08:58:10;;;;;;;7.28;5.38;;;;;;;19.39;64.00;101955.81;4987635;28;20034;-75
2022/07/23 09:00:35;;;;;;;7.93;5.10;;;;;;;19.57;64.00;101953.94;4987591;28;20044;-75
2022/07/23 09:03:01;;;;;;;6.35;4.30;;;;;;;19.67;64.66;101963.53;4988490;28;20031;-75
2022/07/23 09:05:26;;;;;;;7.45;4.95;;;;;;;19.67;62.64;101963.53;4987231;28;20034;-75
2022/07/23 09:08:10;;;;;;;7.35;5.05;;;;;;;19.68;63.15;101959.94;4985002;28;20109;-75
2022/07/23 09:11:00;;;;;;;9.98;4.95;;;;;;;19.80;63.97;101953.41;4985298;28;20065;-75
2022/07/23 09:13:45;;;;;;;6.38;4.85;;;;;;;19.85;63.46;101948.50;4986622;28;20758;-75
2022/07/23 09:16:29;;;;;;;6.93;5.05;;;;;;;20.07;63.57;101945.31;4986468;28;20125;-75
2022/07/23 09:19:00;;;;;;;7.72;4.65;;;;;;;19.98;63.35;101946.25;4984659;28;20034;-74
2022/07/23 09:21:31;;;;;;;7.63;4.85;;;;;;;19.85;61.14;101949.34;4986389;28;20038;-75
2022/07/23 09:24:01;;;;;;;6.40;4.30;;;;;;;20.03;61.60;101945.78;4986014;28;20506;-75
2022/07/23 09:26:36;;;;;;;6.80;4.47;;;;;;;19.91;60.98;101947.06;4986839;28;20113;-75
2022/07/23 09:29:10;;;;;;;6.28;4.50;;;;;;;20.23;62.26;101949.75;4986548;28;20049;-75
2022/07/23 09:31:46;;;;;;;7.05;4.88;;;;;;;20.05;60.42;101955.16;4984554;28;20034;-75
2022/07/23 09:34:26;;;;;;;7.63;5.07;;;;;;;20.29;61.21;101953.56;4986867;28;20398;-75
2022/07/23 09:37:17;;;;;;;7.75;5.15;;;;;;;20.22;59.68;101942.03;4986458;28;20113;-75
2022/07/23 09:39:45;;;;;;;7.20;4.40;;;;;;;20.50;60.65;101948.69;4987351;28;20054;-74
2022/07/23 09:42:15;;;;;;;7.28;5.45;;;;;;;20.24;59.56;101953.22;4986595;28;20577;-75
2022/07/23 09:44:42;;;;;;;7.07;4.78;;;;;;;20.40;59.43;101945.34;4986146;28;20022;-74
2022/07/23 09:47:07;;;;;;;8.95;5.18;;;;;;;20.52;61.64;101944.06;4987174;28;20109;-75
2022/07/23 09:49:33;;;;;;;7.90;5.60;;;;;;;20.49;59.77;101944.41;4987571;28;20129;-75
2022/07/23 09:52:01;;;;;;;7.85;5.30;;;;;;;20.69;61.48;101945.75;4986645;28;20454;-75
2022/07/23 09:54:38;;;;;;;7.63;5.55;;;;;;;20.83;61.37;101946.09;4987933;28;20024;-75
2022/07/23 09:57:16;;;;;;;7.68;5.97;;;;;;;20.73;59.16;101945.44;4985577;28;20077;-76
2022/07/23 09:59:43;;;;;;;7.00;5.72;;;;;;;20.64;57.93;101947.22;4984763;28;20035;-75
2022/07/23 10:02:12;;;;;;;6.82;5.35;;;;;;;20.81;58.23;101942.78;4986232;28;20042;-75
2022/07/23 10:04:38;;;;;;;7.72;5.53;;;;;;;20.94;58.63;101943.13;4984749;28;20032;-75
2022/07/23 10:07:05;;;;;;;7.43;5.30;;;;;;;21.15;60.05;101946.03;4985643;28;20030;-75
2022/07/23 10:09:36;;;;;;;8.30;5.15;;;;;;;21.27;57.63;101953.63;4985334;28;20026;-75
2022/07/23 10:14:40;;;;;;;9.35;6.15;;;;;;;21.33;56.69;101948.50;4978023;28;20040;-77
2022/07/23 10:17:05;;;;;;;7.45;5.90;;;;;;;21.24;57.13;101948.69;4986608;28;20543;-75
2022/07/23 10:19:31;;;;;;;6.15;4.60;;;;;;;21.71;59.21;101946.91;4985653;28;20018;-79
2022/07/23 10:22:00;;;;;;;7.82;5.20;;;;;;;21.40;55.41;101957.44;4986794;28;20474;-75
2022/07/23 10:24:44;;;;;;;5.53;3.63;;;;;;;21.89;57.17;101953.78;4985611;28;20537;-73
2022/07/23 10:27:42;;;;;;;6.88;4.13;;;;;;;22.01;56.04;101949.75;4997817;28;20073;-75
2022/07/23 10:30:12;;;;;;;6.07;4.25;;;;;;;21.92;55.09;101942.88;4980771;28;20042;-76
2022/07/23 10:32:53;;;;;;;7.07;4.15;;;;;;;22.03;55.92;101944.31;4985745;28;20061;-73
2022/07/23 10:35:31;;;;;;;6.57;4.50;;;;;;;21.97;57.33;101940.56;5001788;28;20621;-75
2022/07/23 10:38:01;;;;;;;;;;;;;;;22.25;58.05;101949.69;4986991;28;20538;-75
2022/07/23 10:40:28;;;;;;;6.55;4.45;;;;;;;21.99;53.96;101949.13;4990486;28;19924;-77
2022/07/23 10:43:00;;;;;;;7.65;3.60;;;;;;;22.10;55.04;101951.41;4989972;28;20030;-75
2022/07/23 10:45:29;;;;;;;4.47;3.20;;;;;;;22.14;54.85;101944.78;4989594;28;20030;-75
2022/07/23 10:48:08;;;;;;;6.28;3.58;;;;;;;22.26;56.95;101940.75;4990698;28;20038;-75
2022/07/23 10:50:36;;;;;;;6.18;4.15;;;;;;;22.26;53.76;101951.31;4989829;28;20038;-75
2022/07/23 10:53:05;;;;;;;;;;;;;;;22.57;56.00;101953.06;5005128;28;20045;-75
2022/07/23 10:55:30;;;;;;;7.30;4.10;;;;;;;22.25;53.63;101944.38;4989203;28;19913;-75
2022/07/23 10:57:55;;;;;;;5.63;3.90;;;;;;;22.56;53.48;101935.56;5002884;28;20041;-75
2022/07/23 11:00:29;;;;;;;5.72;3.40;;;;;;;22.42;52.83;101946.91;4989045;28;20320;-76
2022/07/23 11:02:57;;;;;;;5.13;3.05;;;;;;;22.59;54.53;101948.44;4989930;28;20041;-75
2022/07/23 11:05:25;;;;;;;6.72;4.20;;;;;;;22.38;51.09;101949.09;4986488;28;20093;-76
2022/07/23 11:08:07;;;;;;;6.15;3.47;;;;;;;22.44;52.23;101955.50;4988772;28;20018;-75
2022/07/23 11:10:39;;;;;;;4.28;2.88;;;;;;;22.61;52.07;101949.09;4988484;28;20056;-76
2022/07/23 11:13:23;;;;;;;5.15;2.95;;;;;;;22.72;53.39;101956.59;4989663;28;20459;-76
2022/07/23 11:16:01;;;;;;;6.70;3.22;;;;;;;22.96;51.10;101952.13;4988386;28;20390;-75
2022/07/23 11:18:42;;;;;;;3.88;2.60;;;;;;;23.09;52.46;101952.34;4987726;28;20023;-75
2022/07/23 11:21:31;;;;;;;6.20;4.40;;;;;;;22.85;52.45;101955.19;4989658;28;20038;-75
2022/07/23 11:23:57;;;;;;;6.53;4.30;;;;;;;23.14;50.02;101954.44;4983799;28;20088;-75
2022/07/23 11:26:43;;;;;;;6.22;3.80;;;;;;;23.11;52.48;101949.50;4999826;28;20494;-76
2022/07/23 11:29:36;;;;;;;7.15;3.83;;;;;;;23.28;52.18;101951.84;4988936;28;20037;-75